createdAt,value
2022-12-15T00:02:24.039Z,37.47
2022-12-15T00:05:10.348Z,32.42
2022-12-15T00:07:56.321Z,32.70
2022-12-15T00:10:42.916Z,34.38
2022-12-15T00:13:30.671Z,40.70
2022-12-15T00:16:17.611Z,40.17
2022-12-15T00:21:49.936Z,35.58
2022-12-15T00:24:35.747Z,37.30
2022-12-15T00:27:22.729Z,31.55
2022-12-15T00:30:08.708Z,32.00
2022-12-15T00:32:55.229Z,32.95
2022-12-15T00:35:41.359Z,33.67
2022-12-15T00:41:00.952Z,38.33
2022-12-15T00:43:32.362Z,33.70
2022-12-15T00:46:18.861Z,31.13
2022-12-15T00:51:13.798Z,35.13
2022-12-15T00:53:59.613Z,35.97
2022-12-15T00:56:45.781Z,31.77
2022-12-15T00:59:32.254Z,34.55
2022-12-15T01:02:18.855Z,32.63
2022-12-15T01:10:37.504Z,30.83
2022-12-15T01:13:23.915Z,40.22
2022-12-15T01:16:09.883Z,40.35
2022-12-15T01:18:56.300Z,37.88
2022-12-15T01:21:25.523Z,36.50
2022-12-15T01:23:53.425Z,33.57
2022-12-15T01:26:20.805Z,35.53
2022-12-15T01:28:48.258Z,33.03
2022-12-15T01:31:15.924Z,35.50
2022-12-15T01:33:43.769Z,34.57
2022-12-15T01:36:11.358Z,36.27
2022-12-15T01:38:38.965Z,34.67
2022-12-15T01:41:07.787Z,31.23
2022-12-15T01:43:36.956Z,32.57
2022-12-15T01:46:08.612Z,32.83
2022-12-15T01:48:49.636Z,31.93
2022-12-15T01:51:34.084Z,35.83
2022-12-15T01:54:27.762Z,36.77
2022-12-15T01:56:57.153Z,33.83
2022-12-15T01:59:27.224Z,32.63
2022-12-15T02:01:55.008Z,35.30
2022-12-15T02:04:23.108Z,36.20
2022-12-15T02:06:50.673Z,38.00
2022-12-15T02:09:18.122Z,34.00
2022-12-15T02:11:59.790Z,34.40
2022-12-15T02:14:52.168Z,32.43
2022-12-15T02:17:27.391Z,33.03
2022-12-15T02:20:36.583Z,34.33
2022-12-15T02:23:06.780Z,32.93
2022-12-15T02:26:01.379Z,33.37
2022-12-15T02:28:35.292Z,32.70
2022-12-15T02:31:49.868Z,32.00
2022-12-15T02:34:33.407Z,32.25
2022-12-15T02:37:05.205Z,35.40
2022-12-15T02:39:32.812Z,34.70
2022-12-15T02:42:00.135Z,31.17
2022-12-15T02:44:35.240Z,32.53
2022-12-15T02:47:21.106Z,36.03
2022-12-15T02:49:51.269Z,33.58
2022-12-15T02:52:21.586Z,37.50
2022-12-15T02:55:11.040Z,34.97
2022-12-15T02:57:47.168Z,33.47
2022-12-15T03:00:14.509Z,37.17
2022-12-15T03:02:44.503Z,35.63
2022-12-15T03:05:12.417Z,38.83
2022-12-15T03:07:42.760Z,33.27
2022-12-15T03:10:11.681Z,35.80
2022-12-15T03:12:39.055Z,34.00
2022-12-15T03:15:06.964Z,32.23
2022-12-15T03:17:34.593Z,36.13
2022-12-15T03:20:02.173Z,33.50
2022-12-15T03:22:29.694Z,36.63
2022-12-15T03:24:57.663Z,36.50
2022-12-15T03:27:25.051Z,36.67
2022-12-15T03:29:52.425Z,39.13
2022-12-15T03:32:20.184Z,37.30
2022-12-15T03:34:47.581Z,32.80
2022-12-15T03:37:14.945Z,37.03
2022-12-15T03:39:42.542Z,34.53
2022-12-15T03:42:09.878Z,30.63
2022-12-15T03:44:37.197Z,36.73
2022-12-15T03:47:05.901Z,34.50
2022-12-15T03:49:33.245Z,35.00
2022-12-15T03:52:00.603Z,35.73
2022-12-15T03:54:28.208Z,36.03
2022-12-15T03:56:55.590Z,35.57
2022-12-15T03:59:22.942Z,40.17
2022-12-15T04:01:50.608Z,33.50
2022-12-15T04:04:18.353Z,38.67
2022-12-15T04:06:46.168Z,37.33
2022-12-15T04:09:13.479Z,32.67
2022-12-15T04:11:41.156Z,33.40
2022-12-15T04:14:09.418Z,35.47
2022-12-15T04:16:36.742Z,34.87
2022-12-15T04:19:23.276Z,37.97
2022-12-15T04:21:50.571Z,42.40
2022-12-15T04:24:37.041Z,39.83
2022-12-15T04:27:23.079Z,38.30
2022-12-15T04:30:09.537Z,45.92
2022-12-15T04:32:55.848Z,37.80
2022-12-15T04:43:59.771Z,37.67
2022-12-15T04:46:46.050Z,34.65
2022-12-15T04:49:32.024Z,37.75
2022-12-15T04:52:18.509Z,40.35
2022-12-15T04:55:04.694Z,40.42
2022-12-15T05:00:36.533Z,36.95
2022-12-15T05:03:24.036Z,37.97
2022-12-15T05:06:10.208Z,36.03
2022-12-15T05:11:42.115Z,40.67
2022-12-15T05:14:28.591Z,37.58
2022-12-15T05:17:14.607Z,40.20
2022-12-15T05:20:00.926Z,36.42
2022-12-15T05:22:46.944Z,36.90
2022-12-15T05:25:33.350Z,40.03
2022-12-15T05:28:19.484Z,42.13
2022-12-15T05:33:33.759Z,37.70
2022-12-15T05:36:01.695Z,37.97
2022-12-15T05:38:29.013Z,35.97
2022-12-15T05:40:59.457Z,36.70
2022-12-15T05:43:27.265Z,36.27
2022-12-15T05:45:54.747Z,39.63
2022-12-15T05:48:22.251Z,41.27
2022-12-15T05:50:50.580Z,40.93
2022-12-15T05:53:17.935Z,43.23
2022-12-15T05:55:45.254Z,41.83
2022-12-15T05:58:12.915Z,43.73
2022-12-15T06:00:40.368Z,39.33
2022-12-15T06:03:08.033Z,42.67
2022-12-15T06:05:35.472Z,43.47
2022-12-15T06:08:02.865Z,43.47
2022-12-15T06:10:30.461Z,41.70
2022-12-15T06:12:57.795Z,43.33
2022-12-15T06:15:25.134Z,36.67
2022-12-15T06:17:55.724Z,41.30
2022-12-15T06:20:23.076Z,38.80
2022-12-15T06:22:50.457Z,39.53
2022-12-15T06:25:18.058Z,42.23
2022-12-15T06:27:45.409Z,45.17
2022-12-15T06:30:13.333Z,50.23
2022-12-15T06:32:40.969Z,47.83
2022-12-15T06:35:08.642Z,50.20
2022-12-15T06:37:36.138Z,45.87
2022-12-15T06:40:04.056Z,46.63
2022-12-15T06:42:31.433Z,55.17
2022-12-15T06:44:58.774Z,64.97
2022-12-15T06:47:26.376Z,52.60
2022-12-15T06:49:53.847Z,45.17
2022-12-15T06:52:21.288Z,46.93
2022-12-15T06:54:48.877Z,57.63
2022-12-15T06:57:16.848Z,44.17
2022-12-15T06:59:44.286Z,49.33
2022-12-15T07:02:21.078Z,46.00
2022-12-15T07:04:51.111Z,65.60
2022-12-15T07:07:18.774Z,57.20
2022-12-15T07:09:48.876Z,58.67
2022-12-15T07:12:16.246Z,48.13
2022-12-15T07:14:47.471Z,47.63
2022-12-15T07:19:47.864Z,50.83
2022-12-15T07:22:15.223Z,53.43
2022-12-15T07:24:42.547Z,62.40
2022-12-15T07:27:10.186Z,68.03
2022-12-15T07:29:37.483Z,48.87
2022-12-15T07:32:05.003Z,55.13
2022-12-15T07:34:32.606Z,55.23
2022-12-15T07:37:00.051Z,47.03
2022-12-15T07:39:27.763Z,50.50
2022-12-15T07:41:55.508Z,46.73
2022-12-15T07:44:22.837Z,52.13
2022-12-15T07:46:50.171Z,53.33
2022-12-15T07:49:18.058Z,53.67
2022-12-15T07:51:45.397Z,54.27
2022-12-15T07:54:13.178Z,47.17
2022-12-15T07:56:40.801Z,54.27
2022-12-15T07:59:08.178Z,52.33
2022-12-15T08:01:35.746Z,46.63
2022-12-15T08:04:03.639Z,53.63
2022-12-15T08:06:31.053Z,47.80
2022-12-15T08:08:58.499Z,41.67
2022-12-15T08:11:26.162Z,48.27
2022-12-15T08:14:14.928Z,43.57
2022-12-15T08:16:41.197Z,45.30
2022-12-15T08:19:11.257Z,46.40
2022-12-15T08:21:42.165Z,48.70
2022-12-15T08:24:09.847Z,49.70
2022-12-15T08:26:38.054Z,47.03
2022-12-15T08:31:53.773Z,47.93
2022-12-15T08:34:21.369Z,45.50
2022-12-15T08:36:48.717Z,53.67
2022-12-15T08:39:16.616Z,42.33
2022-12-15T08:41:44.118Z,43.20
2022-12-15T08:44:11.452Z,47.93
2022-12-15T08:46:39.905Z,50.60
2022-12-15T08:49:08.759Z,43.53
2022-12-15T08:51:36.072Z,48.13
2022-12-15T08:54:03.716Z,42.40
2022-12-15T08:56:31.145Z,42.27
2022-12-15T08:58:59.991Z,46.10
2022-12-15T09:01:28.900Z,47.27
2022-12-15T09:03:56.594Z,49.60
2022-12-15T09:06:28.737Z,49.83
2022-12-15T09:08:57.136Z,44.97
2022-12-15T09:11:25.287Z,51.23
2022-12-15T09:13:52.700Z,46.63
2022-12-15T09:16:20.655Z,48.43
2022-12-15T09:18:53.202Z,47.53
2022-12-15T09:21:23.165Z,49.43
2022-12-15T09:23:52.069Z,46.07
2022-12-15T09:26:20.500Z,43.93
2022-12-15T09:28:50.125Z,51.10
2022-12-15T09:31:22.915Z,49.17
2022-12-15T09:33:51.866Z,45.10
2022-12-15T09:36:19.274Z,48.53
2022-12-15T09:38:46.674Z,50.97
2022-12-15T09:41:17.382Z,47.73
2022-12-15T09:44:23.008Z,56.37
2022-12-15T09:49:30.055Z,47.07
2022-12-15T09:52:17.925Z,46.75
2022-12-15T09:54:46.344Z,50.37
2022-12-15T09:57:25.585Z,51.33
2022-12-15T10:00:33.442Z,52.97
2022-12-15T10:03:19.989Z,47.83
2022-12-15T10:06:27.080Z,49.92
2022-12-15T10:09:27.929Z,46.93
2022-12-15T10:12:00.403Z,50.90
2022-12-15T10:14:34.421Z,47.63
2022-12-15T10:17:07.378Z,55.50
2022-12-15T10:19:40.816Z,49.10
2022-12-15T10:22:16.816Z,43.67
2022-12-15T10:25:09.270Z,47.50
2022-12-15T10:27:34.153Z,55.10
2022-12-15T10:30:09.661Z,53.57
2022-12-15T10:32:43.060Z,44.83
2022-12-15T10:35:15.823Z,46.53
2022-12-15T10:37:43.353Z,43.87
2022-12-15T10:40:15.365Z,51.00
2022-12-15T10:42:50.213Z,50.13
2022-12-15T10:45:38.072Z,48.33
2022-12-15T10:48:06.993Z,45.77
2022-12-15T10:50:35.489Z,55.13
2022-12-15T10:53:09.923Z,49.83
2022-12-15T10:55:39.864Z,46.43
2022-12-15T10:58:18.527Z,51.80
2022-12-15T11:00:46.562Z,47.83
2022-12-15T11:03:26.249Z,50.83
2022-12-15T11:05:55.243Z,54.97
2022-12-15T11:08:23.605Z,49.13
2022-12-15T11:11:14.067Z,51.93
2022-12-15T11:13:42.054Z,47.17
2022-12-15T11:16:17.289Z,51.60
2022-12-15T11:18:51.500Z,47.43
2022-12-15T11:21:34.511Z,65.53
2022-12-15T11:24:22.667Z,57.57
2022-12-15T11:27:30.700Z,56.27
2022-12-15T11:30:16.003Z,60.07
2022-12-15T11:32:46.897Z,54.83
2022-12-15T11:35:19.159Z,56.43
2022-12-15T11:37:51.712Z,63.17
2022-12-15T11:40:52.757Z,58.63
2022-12-15T11:43:43.470Z,54.90
2022-12-15T11:46:14.126Z,56.13
2022-12-15T11:48:49.030Z,63.53
2022-12-15T11:51:34.989Z,57.97
2022-12-15T11:54:17.779Z,64.82
2022-12-15T11:56:53.005Z,61.13
2022-12-15T11:59:32.556Z,63.83
2022-12-15T12:02:23.004Z,57.27
2022-12-15T12:05:14.012Z,56.60
2022-12-15T12:07:50.914Z,56.90
2022-12-15T12:10:24.249Z,57.70
2022-12-15T12:13:04.770Z,59.07
2022-12-15T12:15:55.925Z,60.37
2022-12-15T12:18:30.158Z,53.73
2022-12-15T12:21:12.440Z,56.70
2022-12-15T12:23:47.735Z,56.47
2022-12-15T12:26:25.345Z,55.60
2022-12-15T12:29:28.182Z,57.75
2022-12-15T12:32:05.201Z,54.43
2022-12-15T12:34:35.841Z,55.90
2022-12-15T12:37:25.233Z,65.33
2022-12-15T12:39:52.849Z,74.47
2022-12-15T12:42:40.207Z,65.03
2022-12-15T12:45:12.135Z,64.47
2022-12-15T12:47:41.616Z,71.20
2022-12-15T12:50:28.001Z,66.93
2022-12-15T12:52:59.293Z,69.83
2022-12-15T12:55:40.073Z,74.63
2022-12-15T12:58:34.457Z,63.87
2022-12-15T13:01:15.245Z,60.97
2022-12-15T13:03:43.573Z,65.40
2022-12-15T13:06:35.670Z,59.27
2022-12-15T13:09:47.854Z,65.03
2022-12-15T13:12:51.603Z,68.17
2022-12-15T13:15:29.340Z,61.97
2022-12-15T13:18:00.247Z,66.95
2022-12-15T13:20:32.100Z,68.70
2022-12-15T13:23:25.639Z,76.33
2022-12-15T13:28:45.636Z,74.17
2022-12-15T13:31:16.537Z,64.47
2022-12-15T13:34:11.949Z,65.40
2022-12-15T13:36:39.448Z,62.78
2022-12-15T13:39:13.061Z,67.93
2022-12-15T13:42:07.881Z,74.73
2022-12-15T13:44:48.655Z,64.40
2022-12-15T13:47:21.147Z,70.53
2022-12-15T13:50:02.882Z,63.83
2022-12-15T13:53:16.340Z,64.00
2022-12-15T13:55:28.112Z,64.80
2022-12-15T13:57:58.856Z,70.33
2022-12-15T14:00:26.268Z,66.93
2022-12-15T14:03:07.114Z,75.97
2022-12-15T14:05:34.571Z,70.23
2022-12-15T14:08:03.504Z,70.13
2022-12-15T14:10:36.678Z,66.43
2022-12-15T14:13:21.194Z,72.23
2022-12-15T14:15:59.699Z,69.67
2022-12-15T14:18:35.705Z,68.10
2022-12-15T14:21:07.175Z,77.17
2022-12-15T14:24:03.976Z,78.20
2022-12-15T14:26:32.454Z,75.93
2022-12-15T14:29:05.533Z,74.70
2022-12-15T14:31:33.197Z,68.67
2022-12-15T14:34:03.705Z,68.17
2022-12-15T14:36:31.053Z,78.87
2022-12-15T14:39:00.269Z,81.10
2022-12-15T14:41:29.790Z,71.77
2022-12-15T14:44:31.868Z,73.10
2022-12-15T14:46:49.504Z,83.07
2022-12-15T14:49:26.963Z,71.37
2022-12-15T14:51:59.764Z,78.15
2022-12-15T14:54:37.639Z,79.60
2022-12-15T14:57:15.154Z,72.33
2022-12-15T14:59:44.059Z,70.63
2022-12-15T15:02:23.137Z,83.87
2022-12-15T15:03:15.373Z,69.27
2022-12-15T15:04:59.924Z,90.00
2022-12-15T15:07:28.824Z,76.30
2022-12-15T15:09:56.180Z,78.07
2022-12-15T15:12:24.723Z,89.47
2022-12-15T15:15:00.292Z,76.77
2022-12-15T15:17:57.324Z,78.33
2022-12-15T15:20:35.904Z,83.30
2022-12-15T15:23:19.104Z,83.55
2022-12-15T15:25:49.615Z,80.73
2022-12-15T15:28:19.733Z,78.03
2022-12-15T15:30:59.261Z,72.37
2022-12-15T15:33:27.595Z,77.20
2022-12-15T15:35:56.516Z,81.17
2022-12-15T15:38:35.718Z,81.07
2022-12-15T15:41:30.034Z,72.17
2022-12-15T15:44:01.404Z,74.90
2022-12-15T15:46:31.257Z,66.50
2022-12-15T15:49:12.669Z,71.93
2022-12-15T15:51:40.589Z,78.47
2022-12-15T15:54:13.133Z,74.53
2022-12-15T15:56:41.551Z,71.97
2022-12-15T15:59:13.140Z,74.17
2022-12-15T16:01:41.050Z,68.37
2022-12-15T16:04:09.142Z,71.17
2022-12-15T16:06:37.470Z,71.93
2022-12-15T16:09:07.264Z,64.20
2022-12-15T16:11:35.351Z,73.73
2022-12-15T16:14:10.891Z,74.60
2022-12-15T16:16:38.669Z,70.60
2022-12-15T16:19:06.056Z,80.60
2022-12-15T16:21:33.499Z,75.60
2022-12-15T16:24:06.442Z,75.27
2022-12-15T16:26:33.837Z,77.50
2022-12-15T16:29:01.484Z,93.63
2022-12-15T16:31:39.146Z,95.27
2022-12-15T16:34:09.315Z,138.93
2022-12-15T16:36:36.683Z,78.20
2022-12-15T16:39:26.887Z,76.03
2022-12-15T16:41:55.182Z,97.13
2022-12-15T16:44:22.908Z,88.03
2022-12-15T16:46:50.337Z,75.90
2022-12-15T16:49:18.032Z,66.03
2022-12-15T16:51:46.980Z,67.93
2022-12-15T16:54:16.786Z,69.10
2022-12-15T16:56:44.445Z,63.20
2022-12-15T16:59:35.627Z,59.87
2022-12-15T17:02:22.217Z,59.10
2022-12-15T17:04:50.295Z,57.60
2022-12-15T17:07:20.423Z,51.77
2022-12-15T17:09:49.573Z,59.97
2022-12-15T17:12:17.961Z,58.23
2022-12-15T17:14:45.817Z,60.77
2022-12-15T17:17:17.596Z,55.17
2022-12-15T17:20:11.758Z,54.77
2022-12-15T17:22:33.279Z,50.60
2022-12-15T17:25:00.715Z,54.77
2022-12-15T17:27:28.616Z,54.97
2022-12-15T17:29:56.447Z,54.00
2022-12-15T17:32:23.863Z,51.80
2022-12-15T17:34:51.741Z,52.53
2022-12-15T17:37:19.376Z,48.80
2022-12-15T17:39:51.099Z,51.80
2022-12-15T17:42:19.804Z,49.07
2022-12-15T17:44:47.954Z,49.23
2022-12-15T17:47:15.667Z,49.60
2022-12-15T17:49:43.406Z,47.63
2022-12-15T17:52:26.194Z,58.20
2022-12-15T17:54:53.931Z,53.03
2022-12-15T17:57:21.279Z,45.50
2022-12-15T17:59:48.650Z,47.17
2022-12-15T18:02:16.378Z,49.77
2022-12-15T18:04:44.115Z,52.13
2022-12-15T18:07:21.903Z,48.17
2022-12-15T18:09:52.317Z,42.87
2022-12-15T18:12:24.019Z,52.67
2022-12-15T18:14:52.130Z,48.30
2022-12-15T18:17:19.909Z,50.37
2022-12-15T18:19:47.281Z,54.27
2022-12-15T18:22:18.851Z,50.03
2022-12-15T18:24:46.530Z,56.87
2022-12-15T18:27:27.131Z,55.00
2022-12-15T18:29:54.862Z,55.93
2022-12-15T18:32:25.342Z,50.43
2022-12-15T18:34:53.598Z,48.77
2022-12-15T18:37:23.144Z,47.13
2022-12-15T18:39:50.926Z,39.40
2022-12-15T18:42:19.302Z,41.70
2022-12-15T18:44:49.055Z,39.40
2022-12-15T18:47:23.364Z,40.90
2022-12-15T18:49:51.211Z,43.50
2022-12-15T18:52:20.782Z,43.83
2022-12-15T18:54:49.123Z,38.50
2022-12-15T18:57:33.502Z,38.63
2022-12-15T19:00:09.815Z,41.07
2022-12-15T19:02:37.804Z,38.15
2022-12-15T19:05:06.221Z,37.40
2022-12-15T19:07:34.223Z,35.90
2022-12-15T19:10:01.856Z,38.90
2022-12-15T19:12:29.181Z,35.47
2022-12-15T19:14:56.540Z,37.47
2022-12-15T19:17:42.917Z,36.43
2022-12-15T19:20:36.528Z,39.15
2022-12-15T19:23:04.835Z,34.97
2022-12-15T19:25:32.198Z,42.23
2022-12-15T19:28:00.108Z,40.73
2022-12-15T19:30:29.881Z,40.07
2022-12-15T19:32:57.354Z,40.73
2022-12-15T19:35:25.609Z,35.33
2022-12-15T19:37:55.971Z,37.40
2022-12-15T19:40:27.473Z,33.60
2022-12-15T19:42:55.673Z,37.47
2022-12-15T19:45:24.483Z,36.50
2022-12-15T19:47:52.076Z,34.87
2022-12-15T19:50:22.381Z,36.10
2022-12-15T19:52:51.667Z,35.73
2022-12-15T19:55:23.399Z,32.40
2022-12-15T19:57:51.093Z,38.80
2022-12-15T20:00:24.808Z,33.57
2022-12-15T20:02:54.590Z,40.13
2022-12-15T20:05:22.951Z,39.60
2022-12-15T20:07:53.777Z,36.83
2022-12-15T20:10:29.402Z,41.67
2022-12-15T20:13:00.672Z,39.97
2022-12-15T20:15:28.341Z,38.90
2022-12-15T20:17:58.464Z,36.30
2022-12-15T20:20:27.205Z,39.13
2022-12-15T20:22:56.242Z,37.70
2022-12-15T20:25:31.119Z,39.47
2022-12-15T20:28:00.603Z,35.13
2022-12-15T20:30:32.807Z,33.77
2022-12-15T20:33:03.777Z,31.00
2022-12-15T20:35:33.110Z,33.37
2022-12-15T20:38:02.299Z,30.70
2022-12-15T20:40:29.839Z,30.30
2022-12-15T20:42:57.287Z,35.03
2022-12-15T20:45:25.631Z,32.73
2022-12-15T20:47:53.829Z,32.63
2022-12-15T20:50:44.090Z,32.50
2022-12-15T20:53:17.258Z,33.30
2022-12-15T20:55:44.863Z,39.83
2022-12-15T20:58:12.707Z,34.00
2022-12-15T21:00:40.072Z,39.87
2022-12-15T21:03:31.277Z,31.53
2022-12-15T21:05:59.347Z,37.40
2022-12-15T21:08:28.259Z,32.17
2022-12-15T21:11:13.607Z,32.63
2022-12-15T21:13:41.350Z,33.63
2022-12-15T21:16:15.510Z,33.03
2022-12-15T21:21:32.784Z,31.13
2022-12-15T21:24:01.039Z,31.13
2022-12-15T21:26:28.849Z,35.73
2022-12-15T21:28:59.817Z,32.83
2022-12-15T21:31:27.490Z,37.20
2022-12-15T21:33:55.045Z,37.30
2022-12-15T21:36:22.490Z,34.57
2022-12-15T21:38:50.879Z,36.47
2022-12-15T21:41:20.505Z,36.50
2022-12-15T21:43:48.047Z,38.47
2022-12-15T21:46:24.625Z,38.80
2022-12-15T21:49:14.823Z,35.83
2022-12-15T21:51:43.678Z,32.30
2022-12-15T21:54:17.438Z,38.70
2022-12-15T21:56:47.400Z,38.23
2022-12-15T21:59:16.144Z,37.67
2022-12-15T22:01:43.766Z,32.63
2022-12-15T22:04:19.416Z,36.53
2022-12-15T22:06:50.215Z,32.93
2022-12-15T22:09:18.938Z,37.83
2022-12-15T22:11:47.537Z,32.23
2022-12-15T22:14:41.048Z,30.67
2022-12-15T22:17:19.715Z,34.17
2022-12-15T22:19:47.625Z,34.57
2022-12-15T22:22:16.567Z,29.23
2022-12-15T22:24:44.009Z,31.53
2022-12-15T22:27:21.497Z,39.90
2022-12-15T22:29:49.177Z,30.53
2022-12-15T22:32:16.955Z,34.57
2022-12-15T22:34:44.343Z,35.50
2022-12-15T22:37:11.988Z,35.73
2022-12-15T22:39:39.710Z,35.83
2022-12-15T22:42:07.051Z,33.07
2022-12-15T22:44:36.042Z,34.13
2022-12-15T22:47:03.475Z,39.03
2022-12-15T22:49:34.091Z,38.87
2022-12-15T22:52:01.822Z,32.10
2022-12-15T22:54:29.531Z,33.10
2022-12-15T22:57:04.509Z,47.87
2022-12-15T22:59:31.957Z,38.00
2022-12-15T23:02:01.196Z,34.87
2022-12-15T23:04:29.588Z,35.70
2022-12-15T23:06:58.063Z,33.73
2022-12-15T23:09:25.467Z,43.93
2022-12-15T23:11:52.814Z,37.90
2022-12-15T23:14:42.554Z,36.00
2022-12-15T23:17:09.896Z,38.00
2022-12-15T23:19:37.489Z,38.97
2022-12-15T23:22:04.797Z,32.40
2022-12-15T23:24:32.653Z,33.20
2022-12-15T23:27:00.255Z,33.10
2022-12-15T23:29:27.698Z,29.30
2022-12-15T23:31:55.457Z,30.13
2022-12-15T23:34:23.076Z,31.33
2022-12-15T23:36:50.740Z,34.23
2022-12-15T23:39:18.103Z,31.97
2022-12-15T23:41:45.706Z,27.73
2022-12-15T23:44:13.044Z,26.63
2022-12-15T23:46:40.734Z,27.67
2022-12-15T23:49:08.424Z,27.67
2022-12-15T23:51:35.745Z,27.73
2022-12-15T23:54:03.117Z,23.60
2022-12-15T23:56:30.771Z,23.37
2022-12-15T23:58:58.772Z,26.03
